Old Crow Airport
CYOC : now visible

Airfield :











YOU CAN JOIN US ON...

 
LOGIN :

Register | Disclaimer

   EN    FR    IT 

 









Legend :    VFR   Marginal VFR   IFR   Intensive IFR   Very Intensive IFR
Visi :
Ceiling :
>= 8 km
>= 3000ft
5 to 8 km
1000 to 3000 ft
1500m to 5 km
500 to 1000 ft
800 to 1500m
200 to 500 ft
< 800m
< 200 ft
Symbols :   Thunderstorms  Fog  Heavy snow  Heavy precipitations  Wind > 20 kt






- Airport Elevation : 824 ft
- IATA code : YOC


CYOC - Old Crow

CURRENT METAR :
  • 182200Z 22003KT 210V290 35SM SCT045 BKN120 BKN220 M26/M29 A2977 RMK SC3AC2CI1 LAST STFD OBS/NEXT 191300Z SLP122

EXPIRED METARs :
  • 182100Z 00000KT 35SM SCT045 BKN120 BKN220 M26/M30 A2981 RMK SC3AC2CI2 SLP134
  • 182000Z 14003KT 35SM FEW045 SCT120 M27/M31 A2984 RMK SC2AC2 PRESFR SLP143

TAF TAF CYOC
Valid from the 18 at 19:00 until the 19 at 01:00 UTC


181838Z 1819/1901 VRB03KT P6SM FEW040
FM182200 04008KT P6SM SCT040 BKN200 RMK NXT FCST WILL BE ISSUED AT 191445Z
CZEG FIR / North America



MET'MAP, your aeronautical weather chart ! - Copyright ORBIFLY December 2007 - Disclaimer

ORBIFLY MET'MAP TEAM :

Programming & Development : Alexandra Zaïnal
Concept & original design : Baudouin d'Aumeries
Assistance for programming : Marc-Olivier Méhu
Technical & hardware support : Manuel Goepfert

Contact : metmap@orbifly.com




SOURCES & CREDITS :

   NOAA       Earth
Advisory